sensor_id;sensor_type;location;lat;lon;timestamp;P1;durP1;ratioP1;P2;durP2;ratioP2
35602;SDS011;21725;50.836;4.368;2022-08-19T00:01:25;23.27;;;20.55;;
35602;SDS011;21725;50.836;4.368;2022-08-19T00:03:58;19.95;;;17.85;;
35602;SDS011;21725;50.836;4.368;2022-08-19T00:06:25;26.77;;;22.33;;
35602;SDS011;21725;50.836;4.368;2022-08-19T00:08:51;22.00;;;19.70;;
35602;SDS011;21725;50.836;4.368;2022-08-19T00:11:17;25.25;;;21.55;;
35602;SDS011;21725;50.836;4.368;2022-08-19T00:13:44;23.73;;;21.23;;
35602;SDS011;21725;50.836;4.368;2022-08-19T00:16:15;26.23;;;22.38;;
35602;SDS011;21725;50.836;4.368;2022-08-19T00:18:45;33.15;;;26.40;;
35602;SDS011;21725;50.836;4.368;2022-08-19T00:21:12;30.23;;;25.63;;
35602;SDS011;21725;50.836;4.368;2022-08-19T00:23:39;35.95;;;28.00;;
35602;SDS011;21725;50.836;4.368;2022-08-19T00:35:07;43.53;;;33.10;;
35602;SDS011;21725;50.836;4.368;2022-08-19T00:37:34;41.97;;;35.30;;
35602;SDS011;21725;50.836;4.368;2022-08-19T00:40:00;47.13;;;36.25;;
35602;SDS011;21725;50.836;4.368;2022-08-19T00:42:27;43.75;;;34.95;;
35602;SDS011;21725;50.836;4.368;2022-08-19T00:44:53;48.75;;;37.25;;
35602;SDS011;21725;50.836;4.368;2022-08-19T00:47:19;48.20;;;36.60;;
35602;SDS011;21725;50.836;4.368;2022-08-19T00:49:49;47.42;;;37.20;;
35602;SDS011;21725;50.836;4.368;2022-08-19T00:52:29;52.83;;;36.67;;
35602;SDS011;21725;50.836;4.368;2022-08-19T00:55:02;52.15;;;40.75;;
35602;SDS011;21725;50.836;4.368;2022-08-19T00:57:35;51.08;;;38.10;;
35602;SDS011;21725;50.836;4.368;2022-08-19T01:00:08;48.63;;;40.70;;
35602;SDS011;21725;50.836;4.368;2022-08-19T01:02:39;51.22;;;38.90;;
35602;SDS011;21725;50.836;4.368;2022-08-19T01:05:09;51.75;;;41.40;;
35602;SDS011;21725;50.836;4.368;2022-08-19T01:07:38;51.67;;;41.53;;
35602;SDS011;21725;50.836;4.368;2022-08-19T01:10:05;48.20;;;38.42;;
35602;SDS011;21725;50.836;4.368;2022-08-19T01:12:36;47.85;;;37.60;;
35602;SDS011;21725;50.836;4.368;2022-08-19T01:15:04;47.90;;;36.58;;
35602;SDS011;21725;50.836;4.368;2022-08-19T01:17:32;44.08;;;34.08;;
35602;SDS011;21725;50.836;4.368;2022-08-19T01:20:00;41.55;;;34.85;;
35602;SDS011;21725;50.836;4.368;2022-08-19T01:25:24;42.42;;;31.95;;
35602;SDS011;21725;50.836;4.368;2022-08-19T01:27:54;44.63;;;33.10;;
35602;SDS011;21725;50.836;4.368;2022-08-19T01:30:22;36.85;;;31.85;;
35602;SDS011;21725;50.836;4.368;2022-08-19T01:33:00;35.13;;;30.00;;
35602;SDS011;21725;50.836;4.368;2022-08-19T01:35:27;34.65;;;29.67;;
35602;SDS011;21725;50.836;4.368;2022-08-19T01:40:27;34.35;;;27.52;;
35602;SDS011;21725;50.836;4.368;2022-08-19T01:42:58;35.00;;;28.67;;
35602;SDS011;21725;50.836;4.368;2022-08-19T01:45:25;35.63;;;28.23;;
35602;SDS011;21725;50.836;4.368;2022-08-19T01:47:53;31.05;;;27.42;;
35602;SDS011;21725;50.836;4.368;2022-08-19T01:50:19;32.25;;;25.02;;
35602;SDS011;21725;50.836;4.368;2022-08-19T01:52:46;27.10;;;22.85;;
35602;SDS011;21725;50.836;4.368;2022-08-19T01:55:13;30.27;;;25.40;;
35602;SDS011;21725;50.836;4.368;2022-08-19T01:57:43;28.98;;;24.05;;
35602;SDS011;21725;50.836;4.368;2022-08-19T02:00:13;38.70;;;27.50;;
35602;SDS011;21725;50.836;4.368;2022-08-19T02:02:41;31.30;;;25.42;;
35602;SDS011;21725;50.836;4.368;2022-08-19T02:05:08;31.15;;;27.40;;
35602;SDS011;21725;50.836;4.368;2022-08-19T02:07:35;28.95;;;24.42;;
35602;SDS011;21725;50.836;4.368;2022-08-19T02:10:06;24.42;;;20.65;;
35602;SDS011;21725;50.836;4.368;2022-08-19T02:12:35;23.88;;;20.38;;
35602;SDS011;21725;50.836;4.368;2022-08-19T02:15:01;25.33;;;19.50;;
35602;SDS011;21725;50.836;4.368;2022-08-19T02:17:28;23.02;;;19.67;;
35602;SDS011;21725;50.836;4.368;2022-08-19T02:19:56;33.33;;;21.70;;
35602;SDS011;21725;50.836;4.368;2022-08-19T02:22:23;27.50;;;22.20;;
35602;SDS011;21725;50.836;4.368;2022-08-19T02:24:50;26.58;;;23.20;;
35602;SDS011;21725;50.836;4.368;2022-08-19T02:27:16;27.27;;;24.38;;
35602;SDS011;21725;50.836;4.368;2022-08-19T02:29:42;33.40;;;27.02;;
35602;SDS011;21725;50.836;4.368;2022-08-19T02:32:08;28.50;;;25.33;;
35602;SDS011;21725;50.836;4.368;2022-08-19T02:34:34;28.50;;;24.27;;
35602;SDS011;21725;50.836;4.368;2022-08-19T02:37:00;27.25;;;22.40;;
35602;SDS011;21725;50.836;4.368;2022-08-19T02:39:25;31.02;;;23.08;;
35602;SDS011;21725;50.836;4.368;2022-08-19T02:41:51;27.80;;;21.75;;
35602;SDS011;21725;50.836;4.368;2022-08-19T02:44:18;25.80;;;21.75;;
35602;SDS011;21725;50.836;4.368;2022-08-19T02:46:45;30.92;;;23.10;;
35602;SDS011;21725;50.836;4.368;2022-08-19T02:49:12;28.83;;;22.90;;
35602;SDS011;21725;50.836;4.368;2022-08-19T02:51:41;30.38;;;23.77;;
35602;SDS011;21725;50.836;4.368;2022-08-19T02:54:11;25.98;;;22.05;;
35602;SDS011;21725;50.836;4.368;2022-08-19T02:56:39;27.58;;;21.63;;
35602;SDS011;21725;50.836;4.368;2022-08-19T02:59:06;27.00;;;22.00;;
35602;SDS011;21725;50.836;4.368;2022-08-19T03:01:36;31.45;;;21.67;;
35602;SDS011;21725;50.836;4.368;2022-08-19T03:04:03;28.73;;;21.98;;
35602;SDS011;21725;50.836;4.368;2022-08-19T03:06:30;25.92;;;19.92;;
35602;SDS011;21725;50.836;4.368;2022-08-19T03:09:06;26.77;;;19.52;;
35602;SDS011;21725;50.836;4.368;2022-08-19T03:11:32;29.02;;;20.40;;
35602;SDS011;21725;50.836;4.368;2022-08-19T03:13:58;28.33;;;20.65;;
35602;SDS011;21725;50.836;4.368;2022-08-19T03:16:26;24.70;;;20.98;;
35602;SDS011;21725;50.836;4.368;2022-08-19T03:18:53;25.38;;;19.95;;
35602;SDS011;21725;50.836;4.368;2022-08-19T03:21:22;25.48;;;19.02;;
35602;SDS011;21725;50.836;4.368;2022-08-19T03:23:53;29.35;;;21.00;;
35602;SDS011;21725;50.836;4.368;2022-08-19T03:26:20;27.77;;;19.58;;
35602;SDS011;21725;50.836;4.368;2022-08-19T03:28:46;24.92;;;20.08;;
35602;SDS011;21725;50.836;4.368;2022-08-19T03:31:14;25.73;;;20.10;;
35602;SDS011;21725;50.836;4.368;2022-08-19T03:33:41;26.23;;;19.55;;
35602;SDS011;21725;50.836;4.368;2022-08-19T03:36:08;27.20;;;20.02;;
35602;SDS011;21725;50.836;4.368;2022-08-19T03:38:37;33.72;;;19.23;;
35602;SDS011;21725;50.836;4.368;2022-08-19T03:41:09;23.40;;;19.40;;
35602;SDS011;21725;50.836;4.368;2022-08-19T03:43:38;24.92;;;17.83;;
35602;SDS011;21725;50.836;4.368;2022-08-19T03:46:08;26.45;;;18.73;;
35602;SDS011;21725;50.836;4.368;2022-08-19T03:48:36;29.45;;;20.65;;
35602;SDS011;21725;50.836;4.368;2022-08-19T03:51:03;27.92;;;20.85;;
35602;SDS011;21725;50.836;4.368;2022-08-19T03:53:29;33.47;;;23.38;;
35602;SDS011;21725;50.836;4.368;2022-08-19T03:55:57;30.77;;;22.70;;
35602;SDS011;21725;50.836;4.368;2022-08-19T03:58:27;27.60;;;22.15;;
35602;SDS011;21725;50.836;4.368;2022-08-19T04:00:56;27.55;;;21.90;;
35602;SDS011;21725;50.836;4.368;2022-08-19T04:03:23;28.83;;;22.97;;
35602;SDS011;21725;50.836;4.368;2022-08-19T04:29:31;29.65;;;20.42;;
35602;SDS011;21725;50.836;4.368;2022-08-19T04:31:58;38.65;;;20.95;;
35602;SDS011;21725;50.836;4.368;2022-08-19T04:34:25;43.67;;;20.77;;
35602;SDS011;21725;50.836;4.368;2022-08-19T04:36:53;33.35;;;18.75;;
35602;SDS011;21725;50.836;4.368;2022-08-19T04:39:22;26.65;;;18.88;;
35602;SDS011;21725;50.836;4.368;2022-08-19T04:42:13;25.77;;;17.10;;
35602;SDS011;21725;50.836;4.368;2022-08-19T04:44:58;27.52;;;17.17;;
35602;SDS011;21725;50.836;4.368;2022-08-19T04:47:24;24.75;;;17.77;;
35602;SDS011;21725;50.836;4.368;2022-08-19T04:49:50;25.50;;;17.67;;
35602;SDS011;21725;50.836;4.368;2022-08-19T04:52:16;30.60;;;17.63;;
35602;SDS011;21725;50.836;4.368;2022-08-19T04:54:42;25.17;;;16.42;;
35602;SDS011;21725;50.836;4.368;2022-08-19T04:57:09;26.40;;;16.48;;
35602;SDS011;21725;50.836;4.368;2022-08-19T04:59:35;23.67;;;15.43;;
35602;SDS011;21725;50.836;4.368;2022-08-19T05:02:03;23.10;;;16.10;;
35602;SDS011;21725;50.836;4.368;2022-08-19T05:04:30;25.83;;;16.83;;
35602;SDS011;21725;50.836;4.368;2022-08-19T05:06:56;20.13;;;14.70;;
35602;SDS011;21725;50.836;4.368;2022-08-19T05:09:22;32.58;;;16.88;;
35602;SDS011;21725;50.836;4.368;2022-08-19T05:11:48;24.40;;;14.70;;
35602;SDS011;21725;50.836;4.368;2022-08-19T05:14:15;20.75;;;14.77;;
35602;SDS011;21725;50.836;4.368;2022-08-19T05:16:41;22.83;;;14.68;;
35602;SDS011;21725;50.836;4.368;2022-08-19T05:19:07;24.02;;;13.35;;
35602;SDS011;21725;50.836;4.368;2022-08-19T05:21:52;22.48;;;14.00;;
35602;SDS011;21725;50.836;4.368;2022-08-19T05:24:36;25.98;;;14.52;;
35602;SDS011;21725;50.836;4.368;2022-08-19T05:27:02;46.30;;;16.73;;
35602;SDS011;21725;50.836;4.368;2022-08-19T05:29:30;33.05;;;14.73;;
35602;SDS011;21725;50.836;4.368;2022-08-19T05:31:57;35.95;;;17.73;;
35602;SDS011;21725;50.836;4.368;2022-08-19T05:34:24;24.15;;;16.30;;
35602;SDS011;21725;50.836;4.368;2022-08-19T05:36:53;22.45;;;15.90;;
35602;SDS011;21725;50.836;4.368;2022-08-19T05:39:22;24.95;;;17.48;;
35602;SDS011;21725;50.836;4.368;2022-08-19T05:41:52;45.38;;;21.13;;
35602;SDS011;21725;50.836;4.368;2022-08-19T05:44:22;22.02;;;17.08;;
35602;SDS011;21725;50.836;4.368;2022-08-19T05:46:49;27.33;;;17.48;;
35602;SDS011;21725;50.836;4.368;2022-08-19T05:49:18;23.83;;;17.00;;
35602;SDS011;21725;50.836;4.368;2022-08-19T05:51:46;20.70;;;15.20;;
35602;SDS011;21725;50.836;4.368;2022-08-19T05:54:11;27.92;;;16.63;;
35602;SDS011;21725;50.836;4.368;2022-08-19T05:56:38;26.20;;;15.60;;
35602;SDS011;21725;50.836;4.368;2022-08-19T05:59:15;24.83;;;15.45;;
35602;SDS011;21725;50.836;4.368;2022-08-19T06:01:42;19.38;;;13.93;;
35602;SDS011;21725;50.836;4.368;2022-08-19T06:04:10;17.17;;;12.95;;
35602;SDS011;21725;50.836;4.368;2022-08-19T06:06:38;20.42;;;12.20;;
35602;SDS011;21725;50.836;4.368;2022-08-19T06:09:05;20.85;;;11.05;;
35602;SDS011;21725;50.836;4.368;2022-08-19T06:11:40;24.45;;;10.88;;
35602;SDS011;21725;50.836;4.368;2022-08-19T06:14:13;18.00;;;10.93;;
35602;SDS011;21725;50.836;4.368;2022-08-19T06:16:40;16.25;;;10.30;;
35602;SDS011;21725;50.836;4.368;2022-08-19T06:19:09;15.65;;;9.95;;
35602;SDS011;21725;50.836;4.368;2022-08-19T06:21:41;25.20;;;10.15;;
35602;SDS011;21725;50.836;4.368;2022-08-19T06:24:09;14.18;;;9.23;;
35602;SDS011;21725;50.836;4.368;2022-08-19T06:26:37;16.35;;;9.95;;
35602;SDS011;21725;50.836;4.368;2022-08-19T06:29:05;17.87;;;9.23;;
35602;SDS011;21725;50.836;4.368;2022-08-19T06:31:33;24.30;;;10.55;;
35602;SDS011;21725;50.836;4.368;2022-08-19T06:34:00;16.65;;;9.38;;
35602;SDS011;21725;50.836;4.368;2022-08-19T06:36:30;15.20;;;8.02;;
35602;SDS011;21725;50.836;4.368;2022-08-19T06:39:01;16.70;;;8.65;;
35602;SDS011;21725;50.836;4.368;2022-08-19T06:41:34;15.02;;;8.00;;
35602;SDS011;21725;50.836;4.368;2022-08-19T06:44:09;16.92;;;8.65;;
35602;SDS011;21725;50.836;4.368;2022-08-19T06:46:36;15.98;;;8.30;;
35602;SDS011;21725;50.836;4.368;2022-08-19T06:49:03;12.38;;;7.55;;
35602;SDS011;21725;50.836;4.368;2022-08-19T06:51:29;21.80;;;11.40;;
35602;SDS011;21725;50.836;4.368;2022-08-19T06:53:56;15.93;;;10.02;;
35602;SDS011;21725;50.836;4.368;2022-08-19T06:56:26;14.98;;;8.68;;
35602;SDS011;21725;50.836;4.368;2022-08-19T06:58:58;13.25;;;9.43;;
35602;SDS011;21725;50.836;4.368;2022-08-19T07:01:25;15.02;;;9.95;;
35602;SDS011;21725;50.836;4.368;2022-08-19T07:03:51;13.15;;;9.32;;
35602;SDS011;21725;50.836;4.368;2022-08-19T07:06:17;17.02;;;8.18;;
35602;SDS011;21725;50.836;4.368;2022-08-19T07:08:45;16.67;;;9.07;;
35602;SDS011;21725;50.836;4.368;2022-08-19T07:11:12;13.80;;;8.32;;
35602;SDS011;21725;50.836;4.368;2022-08-19T07:13:40;17.50;;;9.52;;
35602;SDS011;21725;50.836;4.368;2022-08-19T07:16:09;17.10;;;9.35;;
35602;SDS011;21725;50.836;4.368;2022-08-19T07:18:37;16.92;;;9.27;;
35602;SDS011;21725;50.836;4.368;2022-08-19T07:23:42;14.70;;;7.60;;
35602;SDS011;21725;50.836;4.368;2022-08-19T07:26:10;12.02;;;7.85;;
35602;SDS011;21725;50.836;4.368;2022-08-19T07:28:38;17.88;;;10.38;;
35602;SDS011;21725;50.836;4.368;2022-08-19T07:31:07;15.63;;;8.93;;
35602;SDS011;21725;50.836;4.368;2022-08-19T07:33:34;15.00;;;8.60;;
35602;SDS011;21725;50.836;4.368;2022-08-19T07:36:02;11.93;;;7.10;;
35602;SDS011;21725;50.836;4.368;2022-08-19T07:38:30;18.17;;;7.90;;
35602;SDS011;21725;50.836;4.368;2022-08-19T07:40:56;12.60;;;6.85;;
35602;SDS011;21725;50.836;4.368;2022-08-19T07:43:22;13.95;;;6.57;;
35602;SDS011;21725;50.836;4.368;2022-08-19T07:45:50;14.38;;;7.43;;
35602;SDS011;21725;50.836;4.368;2022-08-19T07:48:24;14.30;;;7.57;;
35602;SDS011;21725;50.836;4.368;2022-08-19T07:50:57;14.13;;;6.80;;
35602;SDS011;21725;50.836;4.368;2022-08-19T07:53:27;18.05;;;8.35;;
35602;SDS011;21725;50.836;4.368;2022-08-19T07:55:54;14.02;;;8.43;;
35602;SDS011;21725;50.836;4.368;2022-08-19T07:58:21;10.80;;;6.70;;
35602;SDS011;21725;50.836;4.368;2022-08-19T08:00:48;10.27;;;7.10;;
35602;SDS011;21725;50.836;4.368;2022-08-19T08:03:17;12.40;;;7.18;;
35602;SDS011;21725;50.836;4.368;2022-08-19T08:05:44;13.30;;;8.05;;
35602;SDS011;21725;50.836;4.368;2022-08-19T08:08:29;13.00;;;7.55;;
35602;SDS011;21725;50.836;4.368;2022-08-19T08:11:10;13.77;;;7.35;;
35602;SDS011;21725;50.836;4.368;2022-08-19T08:13:37;12.48;;;6.85;;
35602;SDS011;21725;50.836;4.368;2022-08-19T08:16:06;15.07;;;7.70;;
35602;SDS011;21725;50.836;4.368;2022-08-19T08:18:32;12.00;;;7.38;;
35602;SDS011;21725;50.836;4.368;2022-08-19T08:20:59;14.88;;;6.55;;
35602;SDS011;21725;50.836;4.368;2022-08-19T08:23:25;18.33;;;7.80;;
35602;SDS011;21725;50.836;4.368;2022-08-19T08:25:53;12.43;;;7.18;;
35602;SDS011;21725;50.836;4.368;2022-08-19T08:28:21;12.50;;;6.32;;
35602;SDS011;21725;50.836;4.368;2022-08-19T08:30:48;12.27;;;6.65;;
35602;SDS011;21725;50.836;4.368;2022-08-19T08:33:17;13.40;;;6.55;;
35602;SDS011;21725;50.836;4.368;2022-08-19T08:35:44;12.85;;;7.63;;
35602;SDS011;21725;50.836;4.368;2022-08-19T08:38:10;12.82;;;6.05;;
35602;SDS011;21725;50.836;4.368;2022-08-19T08:40:38;15.90;;;7.20;;
35602;SDS011;21725;50.836;4.368;2022-08-19T08:46:09;13.18;;;6.05;;
35602;SDS011;21725;50.836;4.368;2022-08-19T08:48:51;15.25;;;7.43;;
35602;SDS011;21725;50.836;4.368;2022-08-19T08:51:37;14.40;;;6.38;;
35602;SDS011;21725;50.836;4.368;2022-08-19T08:54:08;11.20;;;6.32;;
35602;SDS011;21725;50.836;4.368;2022-08-19T08:56:38;12.15;;;6.93;;
35602;SDS011;21725;50.836;4.368;2022-08-19T08:59:07;10.82;;;5.85;;
35602;SDS011;21725;50.836;4.368;2022-08-19T09:01:44;14.20;;;6.82;;
35602;SDS011;21725;50.836;4.368;2022-08-19T09:04:09;24.85;;;8.27;;
35602;SDS011;21725;50.836;4.368;2022-08-19T09:09:42;12.60;;;5.53;;
35602;SDS011;21725;50.836;4.368;2022-08-19T09:14:41;7.78;;;5.78;;
35602;SDS011;21725;50.836;4.368;2022-08-19T09:17:10;14.50;;;6.82;;
35602;SDS011;21725;50.836;4.368;2022-08-19T09:20:37;730.25;;;126.95;;
35602;SDS011;21725;50.836;4.368;2022-08-19T09:22:40;14.25;;;7.00;;
35602;SDS011;21725;50.836;4.368;2022-08-19T09:25:11;13.77;;;6.47;;
35602;SDS011;21725;50.836;4.368;2022-08-19T09:27:41;12.77;;;6.50;;
35602;SDS011;21725;50.836;4.368;2022-08-19T09:30:16;15.48;;;5.82;;
35602;SDS011;21725;50.836;4.368;2022-08-19T09:32:48;13.68;;;6.40;;
35602;SDS011;21725;50.836;4.368;2022-08-19T09:35:17;14.05;;;6.25;;
35602;SDS011;21725;50.836;4.368;2022-08-19T09:37:44;13.20;;;6.80;;
35602;SDS011;21725;50.836;4.368;2022-08-19T09:40:10;16.63;;;6.60;;
35602;SDS011;21725;50.836;4.368;2022-08-19T09:42:37;12.05;;;5.72;;
35602;SDS011;21725;50.836;4.368;2022-08-19T09:45:02;9.52;;;5.60;;
35602;SDS011;21725;50.836;4.368;2022-08-19T09:47:29;12.07;;;6.10;;
35602;SDS011;21725;50.836;4.368;2022-08-19T09:49:55;11.95;;;5.20;;
35602;SDS011;21725;50.836;4.368;2022-08-19T09:52:20;9.48;;;6.07;;
35602;SDS011;21725;50.836;4.368;2022-08-19T09:54:46;37.97;;;7.78;;
35602;SDS011;21725;50.836;4.368;2022-08-19T09:57:12;19.75;;;7.10;;
35602;SDS011;21725;50.836;4.368;2022-08-19T09:59:38;14.95;;;5.57;;
35602;SDS011;21725;50.836;4.368;2022-08-19T10:02:04;8.30;;;4.90;;
35602;SDS011;21725;50.836;4.368;2022-08-19T10:04:30;7.43;;;5.00;;
35602;SDS011;21725;50.836;4.368;2022-08-19T10:27:36;9.38;;;6.22;;
35602;SDS011;21725;50.836;4.368;2022-08-19T10:30:03;13.85;;;7.10;;
35602;SDS011;21725;50.836;4.368;2022-08-19T10:32:30;10.45;;;6.28;;
35602;SDS011;21725;50.836;4.368;2022-08-19T10:34:56;13.48;;;7.50;;
35602;SDS011;21725;50.836;4.368;2022-08-19T10:37:22;9.65;;;7.13;;
35602;SDS011;21725;50.836;4.368;2022-08-19T10:39:47;9.77;;;6.60;;
35602;SDS011;21725;50.836;4.368;2022-08-19T10:42:13;11.20;;;6.28;;
35602;SDS011;21725;50.836;4.368;2022-08-19T10:44:40;11.18;;;7.82;;
35602;SDS011;21725;50.836;4.368;2022-08-19T10:47:06;12.68;;;8.40;;
35602;SDS011;21725;50.836;4.368;2022-08-19T10:49:32;12.05;;;7.00;;
35602;SDS011;21725;50.836;4.368;2022-08-19T10:52:17;11.35;;;8.15;;
35602;SDS011;21725;50.836;4.368;2022-08-19T10:54:59;26.92;;;9.30;;
35602;SDS011;21725;50.836;4.368;2022-08-19T10:57:44;12.75;;;7.80;;
35602;SDS011;21725;50.836;4.368;2022-08-19T11:00:10;16.23;;;8.38;;
35602;SDS011;21725;50.836;4.368;2022-08-19T11:02:36;13.23;;;8.50;;
35602;SDS011;21725;50.836;4.368;2022-08-19T11:05:02;12.68;;;9.27;;
35602;SDS011;21725;50.836;4.368;2022-08-19T11:07:28;13.90;;;8.07;;
35602;SDS011;21725;50.836;4.368;2022-08-19T11:09:53;18.30;;;8.38;;
35602;SDS011;21725;50.836;4.368;2022-08-19T11:12:19;12.13;;;8.32;;
35602;SDS011;21725;50.836;4.368;2022-08-19T11:14:45;14.10;;;7.32;;
35602;SDS011;21725;50.836;4.368;2022-08-19T11:17:10;10.98;;;6.68;;
35602;SDS011;21725;50.836;4.368;2022-08-19T11:19:38;9.45;;;6.75;;
35602;SDS011;21725;50.836;4.368;2022-08-19T11:22:06;9.25;;;7.05;;
35602;SDS011;21725;50.836;4.368;2022-08-19T11:24:34;17.00;;;8.82;;
35602;SDS011;21725;50.836;4.368;2022-08-19T11:27:03;13.50;;;8.93;;
35602;SDS011;21725;50.836;4.368;2022-08-19T11:29:34;13.70;;;9.50;;
35602;SDS011;21725;50.836;4.368;2022-08-19T11:32:07;15.13;;;9.63;;
35602;SDS011;21725;50.836;4.368;2022-08-19T11:34:34;11.32;;;8.77;;
35602;SDS011;21725;50.836;4.368;2022-08-19T11:37:01;11.05;;;9.02;;
35602;SDS011;21725;50.836;4.368;2022-08-19T11:39:29;13.20;;;8.63;;
35602;SDS011;21725;50.836;4.368;2022-08-19T11:41:57;11.02;;;9.20;;
35602;SDS011;21725;50.836;4.368;2022-08-19T11:44:24;11.68;;;9.10;;
35602;SDS011;21725;50.836;4.368;2022-08-19T11:46:50;10.75;;;8.63;;
35602;SDS011;21725;50.836;4.368;2022-08-19T11:49:18;10.73;;;8.68;;
35602;SDS011;21725;50.836;4.368;2022-08-19T11:51:45;14.02;;;8.30;;
35602;SDS011;21725;50.836;4.368;2022-08-19T11:54:13;15.93;;;8.23;;
35602;SDS011;21725;50.836;4.368;2022-08-19T11:56:39;11.98;;;7.55;;
35602;SDS011;21725;50.836;4.368;2022-08-19T11:59:09;12.13;;;7.45;;
35602;SDS011;21725;50.836;4.368;2022-08-19T12:01:35;12.13;;;7.88;;
35602;SDS011;21725;50.836;4.368;2022-08-19T12:04:01;11.63;;;7.65;;
35602;SDS011;21725;50.836;4.368;2022-08-19T12:06:31;14.30;;;6.97;;
35602;SDS011;21725;50.836;4.368;2022-08-19T12:09:00;10.90;;;6.40;;
35602;SDS011;21725;50.836;4.368;2022-08-19T12:11:29;11.40;;;6.45;;
35602;SDS011;21725;50.836;4.368;2022-08-19T12:13:55;12.07;;;6.65;;
35602;SDS011;21725;50.836;4.368;2022-08-19T12:16:23;10.75;;;5.90;;
35602;SDS011;21725;50.836;4.368;2022-08-19T12:18:50;9.13;;;5.75;;
35602;SDS011;21725;50.836;4.368;2022-08-19T12:21:17;9.05;;;6.45;;
35602;SDS011;21725;50.836;4.368;2022-08-19T12:23:47;13.82;;;6.82;;
35602;SDS011;21725;50.836;4.368;2022-08-19T12:26:14;9.43;;;5.68;;
35602;SDS011;21725;50.836;4.368;2022-08-19T12:28:41;13.15;;;5.47;;
35602;SDS011;21725;50.836;4.368;2022-08-19T12:31:08;12.45;;;5.10;;
35602;SDS011;21725;50.836;4.368;2022-08-19T12:36:03;8.65;;;4.70;;
35602;SDS011;21725;50.836;4.368;2022-08-19T12:38:31;6.68;;;4.00;;
35602;SDS011;21725;50.836;4.368;2022-08-19T12:40:57;7.85;;;4.03;;
35602;SDS011;21725;50.836;4.368;2022-08-19T12:43:23;6.10;;;4.18;;
35602;SDS011;21725;50.836;4.368;2022-08-19T12:45:49;12.57;;;4.35;;
35602;SDS011;21725;50.836;4.368;2022-08-19T12:48:15;4.53;;;3.33;;
35602;SDS011;21725;50.836;4.368;2022-08-19T12:50:42;4.60;;;2.95;;
35602;SDS011;21725;50.836;4.368;2022-08-19T12:53:13;11.65;;;4.85;;
35602;SDS011;21725;50.836;4.368;2022-08-19T12:55:39;9.30;;;3.70;;
35602;SDS011;21725;50.836;4.368;2022-08-19T12:58:06;7.38;;;3.78;;
35602;SDS011;21725;50.836;4.368;2022-08-19T13:00:31;7.47;;;4.05;;
35602;SDS011;21725;50.836;4.368;2022-08-19T13:02:57;13.00;;;4.82;;
35602;SDS011;21725;50.836;4.368;2022-08-19T13:05:25;17.02;;;4.45;;
35602;SDS011;21725;50.836;4.368;2022-08-19T13:07:55;11.80;;;4.03;;
35602;SDS011;21725;50.836;4.368;2022-08-19T13:10:23;10.38;;;3.97;;
35602;SDS011;21725;50.836;4.368;2022-08-19T13:12:50;6.93;;;3.58;;
35602;SDS011;21725;50.836;4.368;2022-08-19T13:15:17;10.13;;;3.67;;
35602;SDS011;21725;50.836;4.368;2022-08-19T13:17:50;4.80;;;3.25;;
35602;SDS011;21725;50.836;4.368;2022-08-19T13:20:18;11.23;;;4.80;;
35602;SDS011;21725;50.836;4.368;2022-08-19T13:22:45;11.23;;;3.95;;
35602;SDS011;21725;50.836;4.368;2022-08-19T13:25:11;4.28;;;2.63;;
35602;SDS011;21725;50.836;4.368;2022-08-19T13:27:38;6.57;;;2.95;;
35602;SDS011;21725;50.836;4.368;2022-08-19T13:30:06;8.65;;;3.70;;
35602;SDS011;21725;50.836;4.368;2022-08-19T13:32:51;8.27;;;3.15;;
35602;SDS011;21725;50.836;4.368;2022-08-19T13:35:35;6.20;;;2.85;;
35602;SDS011;21725;50.836;4.368;2022-08-19T13:38:01;4.97;;;2.92;;
35602;SDS011;21725;50.836;4.368;2022-08-19T13:40:29;4.90;;;2.42;;
35602;SDS011;21725;50.836;4.368;2022-08-19T13:42:56;5.57;;;3.00;;
35602;SDS011;21725;50.836;4.368;2022-08-19T13:45:23;4.60;;;2.65;;
35602;SDS011;21725;50.836;4.368;2022-08-19T13:47:53;4.97;;;3.17;;
35602;SDS011;21725;50.836;4.368;2022-08-19T13:50:22;8.23;;;3.33;;
35602;SDS011;21725;50.836;4.368;2022-08-19T13:52:50;4.75;;;2.63;;
35602;SDS011;21725;50.836;4.368;2022-08-19T13:55:18;5.93;;;3.13;;
35602;SDS011;21725;50.836;4.368;2022-08-19T13:57:44;5.72;;;2.90;;
35602;SDS011;21725;50.836;4.368;2022-08-19T14:00:12;6.78;;;3.47;;
35602;SDS011;21725;50.836;4.368;2022-08-19T14:02:40;4.93;;;3.15;;
35602;SDS011;21725;50.836;4.368;2022-08-19T14:05:10;5.18;;;2.40;;
35602;SDS011;21725;50.836;4.368;2022-08-19T14:07:37;3.78;;;2.47;;
35602;SDS011;21725;50.836;4.368;2022-08-19T14:10:04;7.80;;;3.28;;
35602;SDS011;21725;50.836;4.368;2022-08-19T14:12:31;4.30;;;2.42;;
35602;SDS011;21725;50.836;4.368;2022-08-19T14:14:58;6.25;;;2.90;;
35602;SDS011;21725;50.836;4.368;2022-08-19T14:17:24;4.28;;;2.60;;
35602;SDS011;21725;50.836;4.368;2022-08-19T14:19:55;7.18;;;2.47;;
35602;SDS011;21725;50.836;4.368;2022-08-19T14:22:32;10.23;;;3.65;;
35602;SDS011;21725;50.836;4.368;2022-08-19T14:24:58;9.00;;;3.92;;
35602;SDS011;21725;50.836;4.368;2022-08-19T14:27:24;5.20;;;3.17;;
35602;SDS011;21725;50.836;4.368;2022-08-19T14:29:50;5.53;;;3.40;;
35602;SDS011;21725;50.836;4.368;2022-08-19T14:32:17;6.60;;;3.10;;
35602;SDS011;21725;50.836;4.368;2022-08-19T14:34:42;3.85;;;2.40;;
35602;SDS011;21725;50.836;4.368;2022-08-19T14:37:11;3.55;;;2.08;;
35602;SDS011;21725;50.836;4.368;2022-08-19T14:39:39;3.60;;;2.17;;
35602;SDS011;21725;50.836;4.368;2022-08-19T14:42:08;5.45;;;2.60;;
35602;SDS011;21725;50.836;4.368;2022-08-19T14:44:35;3.70;;;2.40;;
35602;SDS011;21725;50.836;4.368;2022-08-19T14:47:01;4.78;;;2.67;;
35602;SDS011;21725;50.836;4.368;2022-08-19T14:49:27;4.60;;;2.17;;
35602;SDS011;21725;50.836;4.368;2022-08-19T14:51:53;3.25;;;1.73;;
35602;SDS011;21725;50.836;4.368;2022-08-19T14:54:19;6.53;;;1.95;;
35602;SDS011;21725;50.836;4.368;2022-08-19T14:56:46;6.70;;;2.05;;
35602;SDS011;21725;50.836;4.368;2022-08-19T14:59:12;3.70;;;2.30;;
35602;SDS011;21725;50.836;4.368;2022-08-19T15:01:38;5.85;;;2.15;;
35602;SDS011;21725;50.836;4.368;2022-08-19T15:04:04;4.28;;;2.60;;
35602;SDS011;21725;50.836;4.368;2022-08-19T15:06:29;3.38;;;2.10;;
35602;SDS011;21725;50.836;4.368;2022-08-19T15:08:56;7.32;;;2.60;;
35602;SDS011;21725;50.836;4.368;2022-08-19T15:11:23;5.82;;;2.53;;
35602;SDS011;21725;50.836;4.368;2022-08-19T15:13:52;6.38;;;2.35;;
35602;SDS011;21725;50.836;4.368;2022-08-19T15:16:19;4.93;;;2.17;;
35602;SDS011;21725;50.836;4.368;2022-08-19T15:18:46;4.80;;;2.60;;
35602;SDS011;21725;50.836;4.368;2022-08-19T15:21:15;3.00;;;1.80;;
35602;SDS011;21725;50.836;4.368;2022-08-19T15:23:43;4.00;;;2.55;;
35602;SDS011;21725;50.836;4.368;2022-08-19T15:26:09;5.22;;;2.00;;
35602;SDS011;21725;50.836;4.368;2022-08-19T15:28:35;4.28;;;2.20;;
35602;SDS011;21725;50.836;4.368;2022-08-19T15:31:02;8.40;;;3.17;;
35602;SDS011;21725;50.836;4.368;2022-08-19T15:33:30;9.15;;;2.25;;
35602;SDS011;21725;50.836;4.368;2022-08-19T15:35:57;6.50;;;3.08;;
35602;SDS011;21725;50.836;4.368;2022-08-19T15:38:26;4.93;;;2.50;;
35602;SDS011;21725;50.836;4.368;2022-08-19T15:40:52;4.37;;;2.40;;
35602;SDS011;21725;50.836;4.368;2022-08-19T15:43:18;8.05;;;2.20;;
35602;SDS011;21725;50.836;4.368;2022-08-19T15:45:47;4.93;;;2.53;;
35602;SDS011;21725;50.836;4.368;2022-08-19T15:48:13;8.18;;;2.75;;
35602;SDS011;21725;50.836;4.368;2022-08-19T15:50:39;7.70;;;3.08;;
35602;SDS011;21725;50.836;4.368;2022-08-19T15:53:09;5.50;;;2.80;;